Allenville, Missouri
Current Conditions -  °F | °C
As of 10:29 AM on Monday 22 Dec 2014 (Local Time) from KCGI Reporting Station
Light Rain Light Rain  
Wind Chill: 42°   Ceiling: 400
Heat Index: 48°   Visibility: 3mi
Dew Point: 47°   Wind: 16mph
Humidity: 96%   Direction: 140°SE
Pressure: 29.76"   Gusts: NA
Location:  37.1651°N, 89.623°W
Report Text: KCGI 221629Z 14014KT 3SM -RA BR OVC004 09/08 A2976 RMK AO2 CIG 003V008 P0003 T00890083
Loading
Personal Weather Stations






























Interactive Weather Map New forecast layout! Learn more

10-Day Weather Forecast

Advertisements
Track Severe Weather on mobile